createdAt,value
2018-07-28T00:00:34.761Z,0.00
2018-07-28T00:01:34.939Z,0.00
2018-07-28T00:02:35.151Z,0.00
2018-07-28T00:03:35.345Z,0.00
2018-07-28T00:04:35.527Z,0.00
2018-07-28T00:05:35.705Z,0.00
2018-07-28T00:06:35.902Z,0.00
2018-07-28T00:07:36.092Z,0.00
2018-07-28T00:08:36.314Z,0.00
2018-07-28T00:09:36.468Z,0.00
2018-07-28T00:10:36.654Z,0.00
2018-07-28T00:11:36.832Z,0.00
2018-07-28T00:12:37.054Z,0.00
2018-07-28T00:13:37.229Z,0.00
2018-07-28T00:14:37.437Z,0.00
2018-07-28T00:15:37.636Z,0.00
2018-07-28T00:16:37.830Z,0.00
2018-07-28T00:17:38.005Z,0.00
2018-07-28T00:18:38.187Z,0.00
2018-07-28T00:19:38.370Z,0.00
2018-07-28T00:20:38.554Z,0.00
2018-07-28T00:21:38.738Z,0.00
2018-07-28T00:22:38.920Z,0.00
2018-07-28T00:23:39.119Z,0.00
2018-07-28T00:24:39.308Z,0.00
2018-07-28T00:25:39.481Z,0.00
2018-07-28T00:26:39.662Z,0.00
2018-07-28T00:27:39.861Z,0.00
2018-07-28T00:28:40.050Z,0.00
2018-07-28T00:29:40.219Z,0.00
2018-07-28T00:30:40.429Z,0.00
2018-07-28T00:31:40.603Z,0.00
2018-07-28T00:32:40.819Z,0.00
2018-07-28T00:33:41.006Z,0.00
2018-07-28T00:34:41.187Z,0.00
2018-07-28T00:35:41.368Z,0.00
2018-07-28T00:36:41.554Z,0.00
2018-07-28T00:37:41.730Z,0.00
2018-07-28T00:38:41.914Z,0.00
2018-07-28T00:39:42.099Z,0.00
2018-07-28T00:40:42.280Z,0.00
2018-07-28T00:41:42.469Z,0.00
2018-07-28T00:42:42.662Z,0.00
2018-07-28T00:43:42.846Z,0.00
2018-07-28T00:44:43.032Z,0.00
2018-07-28T00:45:43.220Z,0.00
2018-07-28T00:46:43.407Z,0.00
2018-07-28T00:47:43.590Z,0.00
2018-07-28T00:48:43.788Z,0.00
2018-07-28T00:49:43.985Z,0.00
2018-07-28T00:50:44.177Z,0.00
2018-07-28T00:51:44.398Z,0.00
2018-07-28T00:52:44.536Z,0.00
2018-07-28T00:53:44.734Z,0.00
2018-07-28T00:54:44.902Z,0.00
2018-07-28T00:55:45.084Z,0.00
2018-07-28T00:56:45.269Z,0.00
2018-07-28T00:57:45.458Z,0.00
2018-07-28T00:58:45.649Z,0.00
2018-07-28T00:59:45.824Z,0.00
2018-07-28T01:00:46.017Z,0.00
2018-07-28T01:01:46.202Z,0.00
2018-07-28T01:02:46.391Z,0.00
2018-07-28T01:03:46.582Z,0.00
2018-07-28T01:04:46.773Z,0.00
2018-07-28T01:05:46.959Z,0.00
2018-07-28T01:06:47.147Z,0.00
2018-07-28T01:07:47.334Z,0.00
2018-07-28T01:08:47.518Z,0.00
2018-07-28T01:09:47.698Z,0.00
2018-07-28T01:10:47.875Z,0.00
2018-07-28T01:11:48.061Z,0.00
2018-07-28T01:12:48.255Z,0.00
2018-07-28T01:13:48.444Z,0.00
2018-07-28T01:14:48.644Z,0.00
2018-07-28T01:15:48.801Z,0.00
2018-07-28T01:16:48.998Z,0.00
2018-07-28T01:17:49.178Z,0.00
2018-07-28T01:18:49.357Z,0.00
2018-07-28T01:19:49.558Z,0.00
2018-07-28T01:20:49.747Z,0.00
2018-07-28T01:21:49.933Z,0.00
2018-07-28T01:22:50.116Z,0.00
2018-07-28T01:23:50.300Z,0.00
2018-07-28T01:24:50.501Z,0.00
2018-07-28T01:25:50.666Z,0.00
2018-07-28T01:26:50.858Z,0.00
2018-07-28T01:27:51.048Z,0.00
2018-07-28T01:28:51.233Z,0.00
2018-07-28T01:29:51.414Z,0.00
2018-07-28T01:30:51.603Z,0.00
2018-07-28T01:31:51.798Z,0.00
2018-07-28T01:32:51.966Z,0.00
2018-07-28T01:33:52.167Z,0.00
2018-07-28T01:34:52.353Z,0.00
2018-07-28T01:35:52.541Z,0.00
2018-07-28T01:36:52.715Z,0.00
2018-07-28T01:37:52.899Z,0.00
2018-07-28T01:38:53.096Z,0.00
2018-07-28T01:39:53.311Z,0.00
2018-07-28T01:40:53.470Z,0.00
2018-07-28T01:41:53.660Z,0.00
2018-07-28T01:42:53.840Z,0.00
2018-07-28T01:43:54.028Z,0.00
2018-07-28T01:44:54.838Z,0.00
2018-07-28T01:45:54.396Z,0.00
2018-07-28T01:46:54.587Z,0.00
2018-07-28T01:47:54.773Z,0.00
2018-07-28T01:48:54.949Z,0.00
2018-07-28T01:49:55.138Z,0.00
2018-07-28T01:50:55.320Z,0.00
2018-07-28T01:51:55.529Z,0.00
2018-07-28T01:52:55.712Z,0.00
2018-07-28T01:53:55.897Z,0.00
2018-07-28T01:54:56.079Z,0.00
2018-07-28T01:55:56.281Z,0.00
2018-07-28T01:56:56.469Z,0.00
2018-07-28T01:57:56.642Z,0.00
2018-07-28T01:58:56.810Z,0.00
2018-07-28T01:59:56.992Z,0.00
2018-07-28T02:00:57.186Z,0.00
2018-07-28T02:01:57.375Z,0.00
2018-07-28T02:02:57.565Z,0.00
2018-07-28T02:03:57.754Z,0.00
2018-07-28T02:04:57.950Z,0.00
2018-07-28T02:05:58.134Z,0.00
2018-07-28T02:06:58.320Z,0.00
2018-07-28T02:07:58.487Z,0.00
2018-07-28T02:08:58.676Z,0.00
2018-07-28T02:09:58.863Z,0.00
2018-07-28T02:10:59.051Z,0.00
2018-07-28T02:11:59.236Z,0.00
2018-07-28T02:12:59.415Z,0.00
2018-07-28T02:13:59.604Z,0.00
2018-07-28T02:14:59.791Z,0.00
2018-07-28T02:15:59.966Z,0.00
2018-07-28T02:17:00.167Z,0.00
2018-07-28T02:18:00.354Z,0.00
2018-07-28T02:19:00.527Z,0.00
2018-07-28T02:20:00.716Z,0.00
2018-07-28T02:21:00.910Z,0.00
2018-07-28T02:22:01.095Z,0.00
2018-07-28T02:23:01.285Z,0.00
2018-07-28T02:24:01.473Z,0.00
2018-07-28T02:25:01.661Z,0.00
2018-07-28T02:26:01.845Z,0.00
2018-07-28T02:27:02.031Z,0.00
2018-07-28T02:28:02.201Z,0.00
2018-07-28T02:29:02.399Z,0.00
2018-07-28T02:30:02.599Z,0.00
2018-07-28T02:31:02.749Z,0.00
2018-07-28T02:32:02.943Z,0.00
2018-07-28T02:33:03.135Z,0.00
2018-07-28T02:34:03.320Z,0.00
2018-07-28T02:35:03.505Z,0.00
2018-07-28T02:36:03.694Z,0.00
2018-07-28T02:37:03.866Z,0.00
2018-07-28T02:38:04.057Z,0.00
2018-07-28T02:39:04.239Z,0.00
2018-07-28T02:40:04.436Z,0.00
2018-07-28T02:41:04.617Z,0.00
2018-07-28T02:42:04.802Z,0.00
2018-07-28T02:43:04.972Z,0.00
2018-07-28T02:44:05.151Z,0.00
2018-07-28T02:45:05.325Z,0.00
2018-07-28T02:46:05.519Z,0.00
2018-07-28T02:47:05.710Z,0.00
2018-07-28T02:48:05.882Z,0.00
2018-07-28T02:49:06.070Z,0.00
2018-07-28T02:50:06.256Z,0.00
2018-07-28T02:51:06.440Z,0.00
2018-07-28T02:52:06.628Z,0.00
2018-07-28T02:53:06.793Z,0.00
2018-07-28T02:54:06.977Z,0.00
2018-07-28T02:55:07.205Z,0.00
2018-07-28T02:56:07.403Z,0.00
2018-07-28T02:57:07.606Z,0.00
2018-07-28T02:58:07.781Z,4.00
2018-07-28T02:59:07.961Z,4.00
2018-07-28T03:00:08.184Z,0.00
2018-07-28T03:01:08.336Z,0.00
2018-07-28T03:02:08.549Z,4.00
2018-07-28T03:03:08.719Z,0.00
2018-07-28T03:04:08.901Z,4.00
2018-07-28T03:05:09.085Z,4.00
2018-07-28T03:06:09.270Z,4.00
2018-07-28T03:07:09.481Z,4.00
2018-07-28T03:08:09.658Z,4.00
2018-07-28T03:09:09.850Z,8.00
2018-07-28T03:10:10.044Z,8.00
2018-07-28T03:11:10.247Z,12.00
2018-07-28T03:12:10.426Z,8.00
2018-07-28T03:13:10.615Z,12.00
2018-07-28T03:14:10.792Z,12.00
2018-07-28T03:15:10.972Z,20.00
2018-07-28T03:17:54.881Z,24.00
2018-07-28T03:18:55.064Z,24.00
2018-07-28T03:19:55.256Z,32.00
2018-07-28T03:20:55.438Z,36.00
2018-07-28T03:21:55.620Z,40.00
2018-07-28T03:22:55.808Z,44.00
2018-07-28T03:23:56.004Z,52.00
2018-07-28T03:24:56.190Z,56.00
2018-07-28T03:25:56.377Z,64.00
2018-07-28T03:26:56.560Z,72.00
2018-07-28T03:27:56.749Z,76.00
2018-07-28T03:28:56.931Z,84.00
2018-07-28T03:29:57.118Z,96.00
2018-07-28T03:30:57.302Z,104.00
2018-07-28T03:31:57.494Z,116.00
2018-07-28T03:32:57.680Z,128.00
2018-07-28T03:33:57.864Z,140.00
2018-07-28T03:34:58.049Z,152.00
2018-07-28T03:35:58.237Z,168.00
2018-07-28T03:36:58.426Z,180.00
2018-07-28T03:37:58.611Z,200.00
2018-07-28T03:38:58.800Z,212.00
2018-07-28T03:39:58.985Z,232.00
2018-07-28T03:40:59.165Z,248.00
2018-07-28T03:41:59.363Z,268.00
2018-07-28T03:42:59.543Z,292.00
2018-07-28T03:43:59.728Z,312.00
2018-07-28T03:44:59.918Z,332.00
2018-07-28T03:46:00.123Z,360.00
2018-07-28T03:47:00.280Z,388.00
2018-07-28T03:48:00.469Z,416.00
2018-07-28T03:49:00.649Z,444.00
2018-07-28T03:50:00.832Z,476.00
2018-07-28T03:51:01.016Z,508.00
2018-07-28T03:52:01.203Z,548.00
2018-07-28T03:53:01.420Z,584.00
2018-07-28T03:54:01.595Z,628.00
2018-07-28T03:55:01.751Z,672.00
2018-07-28T03:56:01.934Z,716.00
2018-07-28T03:57:02.129Z,768.00
2018-07-28T03:58:02.296Z,820.00
2018-07-28T03:59:02.481Z,876.00
2018-07-28T04:00:02.646Z,936.00
2018-07-28T04:01:02.833Z,992.00
2018-07-28T04:02:03.011Z,1052.00
2018-07-28T04:03:03.195Z,1116.00
2018-07-28T04:04:03.421Z,1180.00
2018-07-28T04:05:03.561Z,1252.00
2018-07-28T04:06:03.740Z,1336.00
2018-07-28T04:07:03.935Z,1412.00
2018-07-28T04:08:04.108Z,1492.00
2018-07-28T04:09:04.288Z,1576.00
2018-07-28T04:10:04.481Z,1660.00
2018-07-28T04:11:04.651Z,1744.00
2018-07-28T04:12:04.836Z,1832.00
2018-07-28T04:13:05.021Z,1924.00
2018-07-28T04:14:05.206Z,2028.00
2018-07-28T04:15:05.409Z,2140.00
2018-07-28T04:16:05.585Z,2268.00
2018-07-28T04:18:48.482Z,2508.00
2018-07-28T04:19:48.667Z,2660.00
2018-07-28T04:20:48.856Z,2764.00
2018-07-28T04:21:49.040Z,2836.00
2018-07-28T04:22:49.236Z,2952.00
2018-07-28T04:23:49.418Z,3080.00
2018-07-28T04:24:49.606Z,3268.00
2018-07-28T04:25:49.788Z,3324.00
2018-07-28T04:26:49.968Z,3408.00
2018-07-28T04:27:50.158Z,3540.00
2018-07-28T04:28:50.342Z,3696.00
2018-07-28T04:29:50.528Z,3812.00
2018-07-28T04:30:50.717Z,3912.00
2018-07-28T04:31:50.903Z,4036.00
2018-07-28T04:32:51.094Z,4176.00
2018-07-28T04:33:51.278Z,4312.00
2018-07-28T04:34:51.463Z,4460.00
2018-07-28T04:35:51.653Z,4584.00
2018-07-28T04:36:51.843Z,4720.00
2018-07-28T04:37:52.030Z,4868.00
2018-07-28T04:38:52.220Z,5004.00
2018-07-28T04:39:52.408Z,5124.00
2018-07-28T04:40:52.594Z,5252.00
2018-07-28T04:41:52.781Z,5376.00
2018-07-28T04:42:52.964Z,5512.00
2018-07-28T04:43:53.182Z,5636.00
2018-07-28T04:44:53.328Z,5768.00
2018-07-28T04:45:53.526Z,5924.00
2018-07-28T04:46:53.709Z,6092.00
2018-07-28T04:47:53.896Z,6296.00
2018-07-28T04:48:54.078Z,6540.00
2018-07-28T04:49:54.262Z,6704.00
2018-07-28T04:50:54.454Z,7268.00
2018-07-28T04:51:54.658Z,8580.00
2018-07-28T04:52:54.842Z,11748.00
2018-07-28T04:53:55.030Z,16672.00
2018-07-28T04:54:55.218Z,20064.00
2018-07-28T04:55:55.403Z,23392.00
2018-07-28T04:56:55.579Z,25568.00
2018-07-28T04:57:55.756Z,24768.00
2018-07-28T04:58:55.949Z,24128.00
2018-07-28T04:59:56.142Z,23808.00
2018-07-28T05:00:56.322Z,23520.00
2018-07-28T05:01:56.513Z,24000.00
2018-07-28T05:02:56.704Z,24352.00
2018-07-28T05:03:56.898Z,24544.00
2018-07-28T05:04:57.094Z,24672.00
2018-07-28T05:05:57.271Z,24992.00
2018-07-28T05:06:57.465Z,26048.00
2018-07-28T05:07:57.677Z,26912.00
2018-07-28T05:08:57.878Z,27136.00
2018-07-28T05:09:58.037Z,28000.00
2018-07-28T05:10:58.236Z,28192.00
2018-07-28T05:11:58.421Z,29472.00
2018-07-28T05:12:58.606Z,30848.00
2018-07-28T05:13:58.812Z,31360.00
2018-07-28T05:14:58.961Z,31648.00
2018-07-28T05:15:59.165Z,31872.00
2018-07-28T05:16:59.329Z,32224.00
2018-07-28T05:17:59.526Z,32352.00
2018-07-28T05:18:59.721Z,32128.00
2018-07-28T05:19:59.905Z,32416.00
2018-07-28T05:21:00.084Z,32160.00
2018-07-28T05:22:00.277Z,32128.00
2018-07-28T05:23:00.480Z,31552.00
2018-07-28T05:24:00.647Z,31168.00
2018-07-28T05:25:00.842Z,32544.00
2018-07-28T05:26:01.036Z,34624.00
2018-07-28T05:27:01.223Z,36096.00
2018-07-28T05:28:01.425Z,36928.00
2018-07-28T05:29:01.664Z,38208.00
2018-07-28T05:30:01.845Z,37952.00
2018-07-28T05:31:02.021Z,38464.00
2018-07-28T05:32:02.231Z,39424.00
2018-07-28T05:33:02.429Z,39744.00
2018-07-28T05:34:02.621Z,38400.00
2018-07-28T05:35:02.816Z,33696.00
2018-07-28T05:36:03.020Z,14352.00
2018-07-28T05:37:03.233Z,11272.00
2018-07-28T05:38:03.397Z,11420.00
2018-07-28T05:39:03.623Z,12332.00
2018-07-28T05:40:03.762Z,14916.00
2018-07-28T05:41:03.983Z,20768.00
2018-07-28T05:42:04.185Z,31200.00
2018-07-28T05:43:04.356Z,45952.00
2018-07-28T05:44:04.551Z,47872.00
2018-07-28T05:45:04.755Z,50560.00
2018-07-28T05:46:04.946Z,50048.00
2018-07-28T05:47:05.142Z,43648.00
2018-07-28T05:48:05.336Z,46144.00
2018-07-28T05:49:05.534Z,32672.00
2018-07-28T05:50:05.771Z,49728.00
2018-07-28T05:51:05.914Z,51840.00
2018-07-28T05:52:06.102Z,53664.00
2018-07-28T05:53:06.306Z,53504.00
2018-07-28T05:54:06.504Z,54272.00
2018-07-28T05:55:06.689Z,54464.00
2018-07-28T05:56:06.903Z,55872.00
2018-07-28T05:57:07.076Z,57344.00
2018-07-28T05:58:07.284Z,60224.00
2018-07-28T05:59:07.467Z,61184.00
2018-07-28T06:00:07.666Z,62112.00
2018-07-28T06:01:07.851Z,61408.00
2018-07-28T06:02:08.119Z,61888.00
2018-07-28T06:03:08.269Z,61856.00
2018-07-28T06:04:08.437Z,60032.00
2018-07-28T06:05:08.644Z,59296.00
2018-07-28T06:06:08.835Z,60480.00
2018-07-28T06:07:09.031Z,60768.00
2018-07-28T06:08:09.208Z,62176.00
2018-07-28T06:09:09.398Z,63648.00
2018-07-28T06:10:09.598Z,64896.00
2018-07-28T06:11:09.812Z,66304.00
2018-07-28T06:12:10.005Z,66880.00
2018-07-28T06:13:10.203Z,66240.00
2018-07-28T06:14:10.436Z,66208.00
2018-07-28T06:15:10.582Z,66624.00
2018-07-28T06:16:10.770Z,68864.00
2018-07-28T06:17:10.971Z,69888.00
2018-07-28T06:18:11.169Z,70336.00
2018-07-28T06:19:11.362Z,68960.00
2018-07-28T06:20:11.594Z,66080.00
2018-07-28T06:21:11.757Z,66336.00
2018-07-28T06:22:11.957Z,66752.00
2018-07-28T06:23:12.131Z,67040.00
2018-07-28T06:24:12.333Z,67456.00
2018-07-28T06:25:12.523Z,65792.00
2018-07-28T06:26:12.726Z,63968.00
2018-07-28T06:27:12.926Z,64192.00
2018-07-28T06:28:13.113Z,62464.00
2018-07-28T06:29:13.314Z,53632.00
2018-07-28T06:30:13.510Z,38816.00
2018-07-28T06:31:13.716Z,43104.00
2018-07-28T06:32:13.900Z,64960.00
2018-07-28T06:33:14.113Z,68448.00
2018-07-28T06:34:14.303Z,71296.00
2018-07-28T06:35:14.491Z,73152.00
2018-07-28T06:36:14.682Z,73792.00
2018-07-28T06:37:14.883Z,73952.00
2018-07-28T06:38:15.081Z,71104.00
2018-07-28T06:39:15.298Z,69984.00
2018-07-28T06:40:15.466Z,67616.00
2018-07-28T06:41:15.649Z,63424.00
2018-07-28T06:42:15.838Z,62816.00
2018-07-28T06:43:16.035Z,66048.00
2018-07-28T06:44:16.226Z,70304.00
2018-07-28T06:45:16.423Z,72224.00
2018-07-28T06:46:16.621Z,70432.00
2018-07-28T06:47:16.822Z,67680.00
2018-07-28T06:48:17.004Z,68032.00
2018-07-28T06:49:17.195Z,67872.00
2018-07-28T06:50:17.409Z,69856.00
2018-07-28T06:51:17.656Z,70528.00
2018-07-28T06:52:17.819Z,72096.00
2018-07-28T06:53:18.026Z,72608.00
2018-07-28T06:54:18.228Z,72096.00
2018-07-28T06:55:18.419Z,73248.00
2018-07-28T06:56:18.633Z,74016.00
2018-07-28T06:57:18.830Z,74784.00
2018-07-28T06:58:19.018Z,76352.00
2018-07-28T06:59:19.210Z,75680.00
2018-07-28T07:00:19.404Z,76512.00
2018-07-28T07:01:19.634Z,76384.00
2018-07-28T07:02:19.820Z,75456.00
2018-07-28T07:03:20.019Z,75584.00
2018-07-28T07:04:20.223Z,75584.00
2018-07-28T07:05:20.415Z,75872.00
2018-07-28T07:06:20.636Z,76160.00
2018-07-28T07:07:20.849Z,73664.00
2018-07-28T07:08:21.022Z,74176.00
2018-07-28T07:09:21.219Z,73152.00
2018-07-28T07:10:21.407Z,72480.00
2018-07-28T07:11:21.602Z,74368.00
2018-07-28T07:12:21.788Z,75456.00
2018-07-28T07:13:21.987Z,75936.00
2018-07-28T07:14:22.195Z,75808.00
2018-07-28T07:15:22.384Z,74016.00
2018-07-28T07:16:22.590Z,73056.00
2018-07-28T07:17:22.775Z,74912.00
2018-07-28T07:18:22.985Z,77152.00
2018-07-28T07:19:23.195Z,77440.00
2018-07-28T07:20:23.388Z,75520.00
2018-07-28T07:21:23.577Z,74432.00
2018-07-28T07:22:23.781Z,72512.00
2018-07-28T07:23:23.975Z,70080.00
2018-07-28T07:24:24.177Z,71104.00
2018-07-28T07:25:24.380Z,71872.00
2018-07-28T07:26:24.563Z,72032.00
2018-07-28T07:27:24.787Z,73376.00
2018-07-28T07:28:24.975Z,77184.00
2018-07-28T07:29:25.181Z,81408.00
2018-07-28T07:30:25.453Z,81312.00
2018-07-28T07:31:25.574Z,77856.00
2018-07-28T07:32:25.776Z,78624.00
2018-07-28T07:33:25.980Z,80544.00
2018-07-28T07:34:26.172Z,80832.00
2018-07-28T07:35:26.362Z,80640.00
2018-07-28T07:36:26.566Z,78912.00
2018-07-28T07:37:26.769Z,76896.00
2018-07-28T07:38:26.945Z,76864.00
2018-07-28T07:39:27.143Z,76800.00
2018-07-28T07:40:27.358Z,76032.00
2018-07-28T07:41:27.568Z,80896.00
2018-07-28T07:42:27.748Z,84000.00
2018-07-28T07:43:27.948Z,82240.00
2018-07-28T07:44:28.143Z,81088.00
2018-07-28T07:45:28.359Z,79584.00
2018-07-28T07:46:28.576Z,79936.00
2018-07-28T07:47:28.853Z,82368.00
2018-07-28T07:48:28.966Z,82304.00
2018-07-28T07:49:29.170Z,81984.00
2018-07-28T07:50:29.367Z,79328.00
2018-07-28T07:51:29.588Z,77728.00
2018-07-28T07:52:29.781Z,78208.00
2018-07-28T07:53:30.008Z,78048.00
2018-07-28T07:54:30.218Z,81152.00
2018-07-28T07:55:30.410Z,83456.00
2018-07-28T07:56:30.590Z,86752.00
2018-07-28T07:57:30.793Z,87232.00
2018-07-28T07:58:30.999Z,86816.00
2018-07-28T07:59:31.185Z,84128.00
2018-07-28T08:00:31.374Z,82848.00
2018-07-28T08:01:31.568Z,80960.00
2018-07-28T08:02:31.778Z,79680.00
2018-07-28T08:03:31.968Z,81056.00
2018-07-28T08:04:32.156Z,80032.00
2018-07-28T08:05:32.368Z,80352.00
2018-07-28T08:06:32.590Z,80288.00
2018-07-28T08:07:32.752Z,77504.00
2018-07-28T08:08:32.954Z,75552.00
2018-07-28T08:09:33.151Z,76192.00
2018-07-28T08:10:33.356Z,77728.00
2018-07-28T08:11:33.549Z,76320.00
2018-07-28T08:12:33.803Z,59680.00
2018-07-28T08:13:33.953Z,34336.00
2018-07-28T08:14:34.145Z,23840.00
2018-07-28T08:15:34.357Z,22848.00
2018-07-28T08:16:34.560Z,22944.00
2018-07-28T08:17:34.755Z,22240.00
2018-07-28T08:18:34.967Z,21312.00
2018-07-28T08:19:35.176Z,20960.00
2018-07-28T08:20:35.363Z,20608.00
2018-07-28T08:21:35.553Z,20160.00
2018-07-28T08:22:35.794Z,19744.00
2018-07-28T08:23:35.952Z,19424.00
2018-07-28T08:24:36.155Z,19456.00
2018-07-28T08:25:36.348Z,19168.00
2018-07-28T08:26:36.589Z,19232.00
2018-07-28T08:27:36.743Z,19136.00
2018-07-28T08:28:36.941Z,19072.00
2018-07-28T08:29:37.169Z,18816.00
2018-07-28T08:30:37.376Z,19040.00
2018-07-28T08:31:37.561Z,18720.00
2018-07-28T08:32:37.761Z,18656.00
2018-07-28T08:33:37.989Z,18944.00
2018-07-28T08:34:38.149Z,18880.00
2018-07-28T08:35:38.342Z,19200.00
2018-07-28T08:36:38.543Z,19200.00
2018-07-28T08:37:38.733Z,19296.00
2018-07-28T08:38:38.929Z,19648.00
2018-07-28T08:39:39.120Z,19872.00
2018-07-28T08:40:39.314Z,20288.00
2018-07-28T08:41:39.514Z,20576.00
2018-07-28T08:42:39.703Z,20448.00
2018-07-28T08:43:39.934Z,20160.00
2018-07-28T08:44:40.110Z,20480.00
2018-07-28T08:45:40.308Z,21088.00
2018-07-28T08:46:40.507Z,21504.00
2018-07-28T08:47:40.711Z,21856.00
2018-07-28T08:48:40.887Z,22176.00
2018-07-28T08:49:41.145Z,21536.00
2018-07-28T08:50:41.304Z,19872.00
2018-07-28T08:51:41.503Z,20000.00
2018-07-28T08:52:41.726Z,19840.00
2018-07-28T08:53:41.935Z,19264.00
2018-07-28T08:54:42.205Z,27840.00
2018-07-28T08:55:42.354Z,10592.00
2018-07-28T08:56:42.565Z,27616.00
2018-07-28T08:57:42.775Z,20800.00
2018-07-28T08:58:42.970Z,37088.00
2018-07-28T08:59:43.168Z,31776.00
2018-07-28T09:00:43.373Z,32064.00
2018-07-28T09:01:43.566Z,27424.00
2018-07-28T09:02:43.759Z,26752.00
2018-07-28T09:03:43.974Z,18624.00
2018-07-28T09:04:44.170Z,18528.00
2018-07-28T09:05:44.363Z,27936.00
2018-07-28T09:06:44.567Z,19040.00
2018-07-28T09:07:44.765Z,12936.00
2018-07-28T09:08:44.979Z,13396.00
2018-07-28T09:09:45.167Z,15424.00
2018-07-28T09:10:45.370Z,15744.00
2018-07-28T09:11:45.544Z,18240.00
2018-07-28T09:12:45.767Z,12880.00
2018-07-28T09:13:45.957Z,13452.00
2018-07-28T09:14:46.152Z,12720.00
2018-07-28T09:15:46.344Z,11212.00
2018-07-28T09:16:46.538Z,10380.00
2018-07-28T09:17:46.779Z,10128.00
2018-07-28T09:18:46.936Z,9088.00
2018-07-28T09:19:47.130Z,8396.00
2018-07-28T09:20:47.332Z,7832.00
2018-07-28T09:21:47.529Z,7528.00
2018-07-28T09:22:47.722Z,7164.00
2018-07-28T09:23:47.915Z,7000.00
2018-07-28T09:24:48.131Z,6932.00
2018-07-28T09:25:48.330Z,7036.00
2018-07-28T09:26:48.529Z,7464.00
2018-07-28T09:27:48.725Z,7232.00
2018-07-28T09:28:48.923Z,7272.00
2018-07-28T09:29:49.127Z,7200.00
2018-07-28T09:30:49.316Z,6944.00
2018-07-28T09:31:49.546Z,6148.00
2018-07-28T09:32:49.754Z,5808.00
2018-07-28T09:33:49.931Z,5752.00
2018-07-28T09:34:50.130Z,5784.00
2018-07-28T09:35:50.332Z,5872.00
2018-07-28T09:36:50.583Z,6104.00
2018-07-28T09:37:50.757Z,7380.00
2018-07-28T09:38:50.971Z,8832.00
2018-07-28T09:39:51.189Z,9332.00
2018-07-28T09:40:51.392Z,8940.00
2018-07-28T09:41:51.582Z,11236.00
2018-07-28T09:42:51.785Z,11292.00
2018-07-28T09:43:51.979Z,12116.00
2018-07-28T09:44:52.181Z,12932.00
2018-07-28T09:45:52.360Z,13772.00
2018-07-28T09:46:52.578Z,13076.00
2018-07-28T09:47:52.737Z,13612.00
2018-07-28T09:48:52.931Z,12824.00
2018-07-28T09:49:53.123Z,12388.00
2018-07-28T09:50:53.324Z,12236.00
2018-07-28T09:51:53.514Z,12288.00
2018-07-28T09:52:53.724Z,12368.00
2018-07-28T09:53:53.898Z,12536.00
2018-07-28T09:54:54.086Z,12636.00
2018-07-28T09:55:54.303Z,12140.00
2018-07-28T09:56:54.489Z,11548.00
2018-07-28T09:57:54.682Z,11052.00
2018-07-28T09:58:54.866Z,11132.00
2018-07-28T09:59:55.086Z,10496.00
2018-07-28T10:00:55.293Z,11288.00
2018-07-28T10:01:55.495Z,11396.00
2018-07-28T10:02:55.688Z,10996.00
2018-07-28T10:03:55.884Z,10980.00
2018-07-28T10:04:56.115Z,11356.00
2018-07-28T10:05:56.315Z,11268.00
2018-07-28T10:06:56.514Z,10896.00
2018-07-28T10:07:56.709Z,10928.00
2018-07-28T10:08:56.916Z,10752.00
2018-07-28T10:09:57.106Z,10408.00
2018-07-28T10:10:57.298Z,10556.00
2018-07-28T10:11:57.494Z,10512.00
2018-07-28T10:12:57.700Z,10232.00
2018-07-28T10:13:57.879Z,10244.00
2018-07-28T10:14:58.068Z,10208.00
2018-07-28T10:15:58.254Z,10432.00
2018-07-28T10:16:58.454Z,10224.00
2018-07-28T10:17:58.628Z,10668.00
2018-07-28T10:18:58.823Z,10772.00
2018-07-28T10:19:59.023Z,10940.00
2018-07-28T10:20:59.217Z,11108.00
2018-07-28T10:21:59.404Z,11088.00
2018-07-28T10:22:59.680Z,10964.00
2018-07-28T10:23:59.785Z,10756.00
2018-07-28T10:24:59.967Z,11160.00
2018-07-28T10:26:00.165Z,11092.00
2018-07-28T10:27:00.366Z,10596.00
2018-07-28T10:28:00.558Z,10432.00
2018-07-28T10:29:00.742Z,9960.00
2018-07-28T10:30:00.991Z,9820.00
2018-07-28T10:31:01.184Z,9548.00
2018-07-28T10:32:01.374Z,9264.00
2018-07-28T10:33:01.550Z,9388.00
2018-07-28T10:34:01.756Z,9760.00
2018-07-28T10:35:01.951Z,9620.00
2018-07-28T10:36:02.162Z,9692.00
2018-07-28T10:37:02.351Z,9452.00
2018-07-28T10:38:02.539Z,9452.00
2018-07-28T10:39:02.750Z,9436.00
2018-07-28T10:40:02.925Z,9428.00
2018-07-28T10:41:03.135Z,9552.00
2018-07-28T10:42:03.326Z,9720.00
2018-07-28T10:43:03.521Z,9912.00
2018-07-28T10:44:03.708Z,10316.00
2018-07-28T10:45:03.919Z,10308.00
2018-07-28T10:46:04.124Z,10380.00
2018-07-28T10:47:04.297Z,10460.00
2018-07-28T10:48:04.496Z,10604.00
2018-07-28T10:49:04.685Z,10652.00
2018-07-28T10:50:04.873Z,10832.00
2018-07-28T10:51:05.069Z,10872.00
2018-07-28T10:52:05.256Z,10740.00
2018-07-28T10:53:05.461Z,10512.00
2018-07-28T10:54:05.661Z,10540.00
2018-07-28T10:55:05.845Z,10464.00
2018-07-28T10:56:06.031Z,10408.00
2018-07-28T10:57:06.240Z,10228.00
2018-07-28T10:58:06.434Z,10028.00
2018-07-28T10:59:06.618Z,9932.00
2018-07-28T11:00:06.914Z,9808.00
2018-07-28T11:01:07.001Z,9748.00
2018-07-28T11:02:07.180Z,9872.00
2018-07-28T11:03:07.377Z,9948.00
2018-07-28T11:04:07.571Z,10008.00
2018-07-28T11:05:07.763Z,9976.00
2018-07-28T11:06:07.981Z,9948.00
2018-07-28T11:07:08.163Z,9976.00
2018-07-28T11:08:08.364Z,9964.00
2018-07-28T11:09:08.613Z,9936.00
2018-07-28T11:10:08.738Z,9792.00
2018-07-28T11:11:08.950Z,9784.00
2018-07-28T11:12:09.147Z,9776.00
2018-07-28T11:13:09.348Z,9716.00
2018-07-28T11:14:09.526Z,9664.00
2018-07-28T11:15:09.729Z,9480.00
2018-07-28T11:16:09.926Z,9552.00
2018-07-28T11:17:10.219Z,9452.00
2018-07-28T11:18:10.365Z,9416.00
2018-07-28T11:19:10.560Z,9384.00
2018-07-28T11:20:10.756Z,9300.00
2018-07-28T11:21:10.951Z,9468.00
2018-07-28T11:22:11.163Z,9384.00
2018-07-28T11:23:11.359Z,9404.00
2018-07-28T11:24:11.547Z,9420.00
2018-07-28T11:25:11.737Z,9448.00
2018-07-28T11:26:11.998Z,9552.00
2018-07-28T11:27:12.125Z,9688.00
2018-07-28T11:28:12.348Z,9652.00
2018-07-28T11:29:12.542Z,9692.00
2018-07-28T11:30:12.735Z,9736.00
2018-07-28T11:31:12.925Z,9832.00
2018-07-28T11:32:13.122Z,9876.00
2018-07-28T11:33:13.335Z,9848.00
2018-07-28T11:34:13.501Z,9988.00
2018-07-28T11:35:13.688Z,9968.00
2018-07-28T11:36:13.890Z,9920.00
2018-07-28T11:37:14.069Z,9876.00
2018-07-28T11:38:14.268Z,9808.00
2018-07-28T11:39:14.466Z,9852.00
2018-07-28T11:40:14.664Z,9800.00
2018-07-28T11:41:14.857Z,9748.00
2018-07-28T11:42:15.117Z,9528.00
2018-07-28T11:43:15.201Z,9504.00
2018-07-28T11:44:15.401Z,9320.00
2018-07-28T11:45:15.599Z,9248.00
2018-07-28T11:46:15.797Z,9076.00
2018-07-28T11:47:15.975Z,8904.00
2018-07-28T11:48:16.162Z,8748.00
2018-07-28T11:49:16.355Z,8544.00
2018-07-28T11:50:16.543Z,8428.00
2018-07-28T11:51:16.769Z,8164.00
2018-07-28T11:52:16.930Z,8076.00
2018-07-28T11:53:17.125Z,7956.00
2018-07-28T11:54:17.339Z,7852.00
2018-07-28T11:55:17.552Z,7904.00
2018-07-28T11:56:17.744Z,8104.00
2018-07-28T11:57:17.952Z,8204.00
2018-07-28T11:58:18.170Z,8316.00
2018-07-28T11:59:18.328Z,8516.00
2018-07-28T12:00:18.518Z,8748.00
2018-07-28T12:01:18.711Z,8944.00
2018-07-28T12:02:18.898Z,9116.00
2018-07-28T12:03:19.095Z,9320.00
2018-07-28T12:04:19.292Z,9664.00
2018-07-28T12:05:19.490Z,9476.00
2018-07-28T12:06:19.678Z,9344.00
2018-07-28T12:07:19.869Z,9208.00
2018-07-28T12:08:20.056Z,9040.00
2018-07-28T12:09:20.247Z,8864.00
2018-07-28T12:10:20.440Z,8776.00
2018-07-28T12:11:20.635Z,8676.00
2018-07-28T12:12:20.846Z,8516.00
2018-07-28T12:13:21.011Z,8392.00
2018-07-28T12:14:21.227Z,8224.00
2018-07-28T12:15:21.417Z,8188.00
2018-07-28T12:16:21.604Z,8092.00
2018-07-28T12:17:21.793Z,8044.00
2018-07-28T12:18:21.993Z,8040.00
2018-07-28T12:19:22.207Z,8108.00
2018-07-28T12:20:22.395Z,8360.00
2018-07-28T12:21:22.589Z,8440.00